sim
Sign-in with your pilot id or email,
or register
Callsign
Passwort

Schedule Details

Flight Number: OEO9108
Departure: Gdansk Lech Walesa Airport (EPGD) at 15:05
Arrival: Munich Airport (EDDM) at 16:50

Weather Information
Getting current METAR information for EPGD 282000Z 12004KT CAVOK 10/08 Q1016
Getting current METAR information for EDDM 282020Z VRB02KT CAVOK 09/07 Q1015 NOSIG

Schedule Frequency

Route Map